createdAt,value
2018-06-22T00:00:23.064Z,97540.29
2018-06-22T00:02:01.536Z,97610.70
2018-06-22T00:03:37.770Z,97611.45
2018-06-22T00:05:15.613Z,97542.48
2018-06-22T00:06:51.801Z,97521.45
2018-06-22T00:08:29.431Z,97550.02
2018-06-22T00:10:05.666Z,97558.27
2018-06-22T00:11:42.400Z,97569.12
2018-06-22T00:13:19.748Z,97509.75
2018-06-22T00:14:57.613Z,97394.66
2018-06-22T00:16:33.917Z,97426.97
2018-06-22T00:18:10.113Z,97464.06
2018-06-22T00:19:47.543Z,97475.35
2018-06-22T00:21:24.755Z,97485.45
2018-06-22T00:23:01.057Z,97502.84
2018-06-22T00:24:40.083Z,97433.53
2018-06-22T00:26:16.715Z,97435.62
2018-06-22T00:27:53.794Z,97422.25
2018-06-22T00:29:30.230Z,97509.41
2018-06-22T00:31:06.743Z,97586.73
2018-06-22T00:32:43.320Z,97554.87
2018-06-22T00:34:20.713Z,97587.11
2018-06-22T00:35:56.986Z,97608.76
2018-06-22T00:37:34.400Z,97603.75
2018-06-22T00:39:12.370Z,97568.38
2018-06-22T00:40:49.775Z,97623.59
2018-06-22T00:42:26.163Z,97616.64
2018-06-22T00:44:02.332Z,97663.75
2018-06-22T00:45:39.661Z,97688.24
2018-06-22T00:47:19.795Z,97606.80
2018-06-22T00:48:59.306Z,97584.16
2018-06-22T00:50:36.397Z,97545.36
2018-06-22T00:52:13.040Z,97542.21
2018-06-22T00:54:06.519Z,97492.61
2018-06-22T00:55:43.113Z,97556.70
2018-06-22T00:57:20.174Z,97617.49
2018-06-22T00:58:57.076Z,97586.50
2018-06-22T01:00:34.933Z,97564.09
2018-06-22T01:02:11.265Z,97658.16
2018-06-22T01:03:47.514Z,97595.13
2018-06-22T01:05:24.864Z,97569.81
2018-06-22T01:07:01.705Z,97568.96
2018-06-22T01:08:42.604Z,97610.20
2018-06-22T01:10:21.532Z,97583.45
2018-06-22T01:11:58.064Z,97575.16
2018-06-22T01:13:35.535Z,97561.19
2018-06-22T01:15:12.734Z,97512.19
2018-06-22T01:16:52.238Z,97453.70
2018-06-22T01:18:29.355Z,97434.75
2018-06-22T01:20:07.602Z,97462.56
2018-06-22T01:21:44.811Z,97487.38
2018-06-22T01:23:22.018Z,97507.44
2018-06-22T01:24:59.400Z,97483.48
2018-06-22T01:26:36.223Z,97467.69
2018-06-22T01:28:14.227Z,97440.32
2018-06-22T01:29:52.222Z,97386.98
2018-06-22T01:31:30.237Z,97312.53
2018-06-22T01:33:07.257Z,97256.81
2018-06-22T01:34:43.517Z,97379.22
2018-06-22T01:36:20.365Z,97384.82
2018-06-22T01:38:01.380Z,97401.34
2018-06-22T01:39:38.233Z,97361.73
2018-06-22T01:41:15.263Z,97334.17
2018-06-22T01:42:52.175Z,97362.59
2018-06-22T01:44:30.844Z,97293.24
2018-06-22T01:46:08.338Z,97298.10
2018-06-22T01:47:44.874Z,97320.80
2018-06-22T01:49:21.335Z,97330.86
2018-06-22T01:50:57.887Z,97344.23
2018-06-22T01:52:34.083Z,97294.69
2018-06-22T01:54:10.293Z,97286.30
2018-06-22T01:55:46.467Z,97352.12
2018-06-22T01:57:23.037Z,97354.91
2018-06-22T01:58:59.278Z,97455.66
2018-06-22T02:00:35.618Z,97502.34
2018-06-22T02:02:12.397Z,97538.08
2018-06-22T02:03:48.964Z,97534.28
2018-06-22T02:05:25.160Z,97512.41
2018-06-22T02:07:01.415Z,97401.56
2018-06-22T02:08:37.589Z,97401.56
2018-06-22T02:10:14.174Z,97447.00
2018-06-22T02:11:50.328Z,97474.85
2018-06-22T02:13:26.531Z,97426.84
2018-06-22T02:15:02.727Z,97460.14
2018-06-22T02:16:41.590Z,97436.08
2018-06-22T02:18:18.006Z,97452.61
2018-06-22T02:19:54.677Z,97522.50
2018-06-22T02:21:31.269Z,97569.31
2018-06-22T02:23:08.840Z,97572.63
2018-06-22T02:24:44.925Z,97609.34
2018-06-22T02:26:21.011Z,97578.80
2018-06-22T02:27:57.454Z,97557.05
2018-06-22T02:29:33.816Z,97547.91
2018-06-22T02:31:09.637Z,97641.45
2018-06-22T02:32:46.378Z,97629.66
2018-06-22T02:34:23.693Z,97537.70
2018-06-22T02:36:01.327Z,97461.00
2018-06-22T02:37:37.540Z,97407.27
2018-06-22T02:39:14.273Z,97362.81
2018-06-22T02:40:50.543Z,97291.75
2018-06-22T02:42:28.139Z,97296.61
2018-06-22T02:44:04.700Z,97339.24
2018-06-22T02:45:41.209Z,97368.89
2018-06-22T02:47:18.998Z,97366.81
2018-06-22T02:48:56.787Z,97369.00
2018-06-22T02:50:33.284Z,97455.02
2018-06-22T02:52:09.741Z,97385.63
2018-06-22T02:53:46.176Z,97421.38
2018-06-22T02:55:23.072Z,97432.66
2018-06-22T02:57:00.061Z,97413.95
2018-06-22T02:58:36.311Z,97443.61
2018-06-22T03:00:12.541Z,97400.33
2018-06-22T03:01:49.068Z,97379.47
2018-06-22T03:03:25.959Z,97317.02
2018-06-22T03:05:02.628Z,97283.14
2018-06-22T03:06:39.481Z,97303.17
2018-06-22T03:08:16.048Z,97247.28
2018-06-22T03:09:52.246Z,97309.73
2018-06-22T03:11:31.702Z,97278.77
2018-06-22T03:13:07.901Z,97305.36
2018-06-22T03:14:44.596Z,97253.51
2018-06-22T03:16:21.316Z,97127.06
2018-06-22T03:17:59.060Z,97114.56
2018-06-22T03:19:35.298Z,97240.02
2018-06-22T03:21:12.248Z,97296.75
2018-06-22T03:22:50.370Z,97341.06
2018-06-22T03:24:26.740Z,97383.95
2018-06-22T03:26:03.374Z,97355.05
2018-06-22T03:27:40.807Z,97246.58
2018-06-22T03:29:16.973Z,97355.16
2018-06-22T03:30:56.273Z,97376.05
2018-06-22T03:32:33.765Z,97360.39
2018-06-22T03:34:10.621Z,97301.47
2018-06-22T03:35:47.854Z,97304.52
2018-06-22T03:37:24.613Z,97380.05
2018-06-22T03:39:00.969Z,97434.73
2018-06-22T03:40:37.593Z,97410.05
2018-06-22T03:42:13.824Z,97427.20
2018-06-22T03:43:50.761Z,97410.67
2018-06-22T03:45:29.209Z,97523.72
2018-06-22T03:47:06.101Z,97532.45
2018-06-22T03:48:42.319Z,97554.22
2018-06-22T03:50:18.811Z,97605.80
2018-06-22T03:51:56.416Z,97631.22
2018-06-22T03:53:34.756Z,97647.38
2018-06-22T03:55:11.211Z,97629.87
2018-06-22T03:56:48.828Z,97613.70
2018-06-22T03:58:24.957Z,97628.16
2018-06-22T04:00:01.840Z,97680.62
2018-06-22T04:01:39.020Z,97650.44
2018-06-22T04:03:15.833Z,97538.16
2018-06-22T04:04:52.817Z,97579.63
2018-06-22T04:06:29.477Z,97622.58
2018-06-22T04:08:05.770Z,97671.84
2018-06-22T04:09:46.417Z,97596.80
2018-06-22T04:11:22.740Z,97589.36
2018-06-22T04:12:59.274Z,97617.72
2018-06-22T04:14:35.484Z,97600.18
2018-06-22T04:16:12.880Z,97570.52
2018-06-22T04:17:52.177Z,97467.78
2018-06-22T04:19:28.515Z,97512.52
2018-06-22T04:21:04.709Z,97510.81
2018-06-22T04:22:40.893Z,97500.72
2018-06-22T04:24:22.728Z,97526.02
2018-06-22T04:26:00.915Z,97574.05
2018-06-22T04:27:37.560Z,97559.67
2018-06-22T04:29:16.408Z,97564.80
2018-06-22T04:30:52.666Z,97588.12
2018-06-22T04:32:29.785Z,97564.53
2018-06-22T04:34:06.577Z,97598.61
2018-06-22T04:35:44.600Z,97594.70
2018-06-22T04:37:24.963Z,97650.20
2018-06-22T04:39:02.179Z,97709.61
2018-06-22T04:40:38.592Z,97763.42
2018-06-22T04:42:16.469Z,97708.34
2018-06-22T04:45:29.197Z,97694.84
2018-06-22T04:47:10.056Z,97686.07
2018-06-22T04:48:48.128Z,97717.53
2018-06-22T04:50:27.102Z,97753.80
2018-06-22T04:52:05.798Z,97681.58
2018-06-22T04:53:46.370Z,97570.15
2018-06-22T04:55:24.891Z,97449.28
2018-06-22T04:57:01.601Z,97393.52
2018-06-22T04:58:39.108Z,97537.55
2018-06-22T05:00:17.487Z,97641.42
2018-06-22T05:01:54.536Z,97641.53
2018-06-22T05:03:31.800Z,97448.80
2018-06-22T05:05:08.477Z,97451.12
2018-06-22T05:06:46.834Z,97515.67
2018-06-22T05:08:25.621Z,97596.52
2018-06-22T05:10:02.507Z,97637.63
2018-06-22T05:11:40.093Z,97642.02
2018-06-22T05:13:19.785Z,97621.83
2018-06-22T05:14:58.653Z,97561.52
2018-06-22T05:16:35.339Z,97595.67
2018-06-22T05:18:14.897Z,97553.72
2018-06-22T05:19:52.132Z,97562.96
2018-06-22T05:21:28.308Z,97660.03
2018-06-22T05:23:05.209Z,97617.55
2018-06-22T05:24:41.525Z,97535.36
2018-06-22T05:26:17.943Z,97497.54
2018-06-22T05:27:56.394Z,97440.29
2018-06-22T05:29:34.553Z,97578.38
2018-06-22T05:31:10.998Z,97604.54
2018-06-22T05:32:47.234Z,97645.55
2018-06-22T05:34:24.086Z,97743.06
2018-06-22T05:36:00.841Z,97650.30
2018-06-22T05:37:37.350Z,97651.27
2018-06-22T05:39:14.417Z,97632.15
2018-06-22T05:40:50.694Z,97666.23
2018-06-22T05:42:28.305Z,97601.97
2018-06-22T05:44:04.592Z,97635.30
2018-06-22T05:45:42.586Z,97714.31
2018-06-22T05:47:18.836Z,97661.85
2018-06-22T05:48:55.496Z,97802.73
2018-06-22T05:50:34.253Z,97819.29
2018-06-22T05:52:12.470Z,97892.28
2018-06-22T05:53:49.290Z,97915.06
2018-06-22T05:55:29.959Z,97831.09
2018-06-22T05:57:07.239Z,97802.62
2018-06-22T05:58:46.561Z,97812.81
2018-06-22T06:00:26.202Z,97775.95
2018-06-22T06:02:06.891Z,97724.39
2018-06-22T06:03:43.230Z,97797.96
2018-06-22T06:05:22.662Z,97816.61
2018-06-22T06:06:59.636Z,97842.06
2018-06-22T06:08:42.482Z,97808.08
2018-06-22T06:10:20.209Z,97854.86
2018-06-22T06:11:57.763Z,97867.52
2018-06-22T06:13:36.166Z,97856.06
2018-06-22T06:15:16.611Z,97695.91
2018-06-22T06:16:52.978Z,97711.75
2018-06-22T06:18:29.303Z,97702.11
2018-06-22T06:20:11.318Z,97714.42
2018-06-22T06:21:49.018Z,97725.01
2018-06-22T06:23:29.953Z,97810.64
2018-06-22T06:25:06.241Z,97929.66
2018-06-22T06:26:42.503Z,97948.91
2018-06-22T06:28:19.497Z,97931.36
2018-06-22T06:29:58.828Z,97864.46
2018-06-22T06:31:35.989Z,97821.59
2018-06-22T06:33:12.942Z,97792.23
2018-06-22T06:34:49.666Z,97811.61
2018-06-22T06:36:27.460Z,97787.12
2018-06-22T06:38:06.461Z,97872.39
2018-06-22T06:39:43.243Z,97913.08
2018-06-22T06:41:20.661Z,97957.80
2018-06-22T06:42:58.749Z,98014.84
2018-06-22T06:44:35.738Z,97975.23
2018-06-22T06:46:12.925Z,97924.91
2018-06-22T06:47:52.396Z,97947.22
2018-06-22T06:49:30.346Z,97933.56
2018-06-22T06:51:06.919Z,97977.56
2018-06-22T06:52:45.294Z,97921.86
2018-06-22T06:54:24.023Z,97872.39
2018-06-22T06:56:01.201Z,97869.91
2018-06-22T06:57:37.671Z,97864.09
2018-06-22T06:59:15.218Z,97869.33
2018-06-22T07:00:52.477Z,97887.72
2018-06-22T07:02:28.808Z,97888.72
2018-06-22T07:04:11.909Z,97857.26
2018-06-22T07:05:48.200Z,97882.61
2018-06-22T07:07:26.050Z,97907.96
2018-06-22T07:09:02.454Z,97872.48
2018-06-22T07:10:40.690Z,97901.27
2018-06-22T07:12:19.599Z,97943.89
2018-06-22T07:13:59.848Z,97980.34
2018-06-22T07:15:42.179Z,97979.38
2018-06-22T07:17:19.449Z,97946.84
2018-06-22T07:19:02.052Z,97950.95
2018-06-22T07:20:41.199Z,97822.69
2018-06-22T07:22:19.713Z,97785.41
2018-06-22T07:24:03.817Z,97855.55
2018-06-22T07:25:42.058Z,97908.44
2018-06-22T07:27:22.198Z,97981.20
2018-06-22T07:28:59.633Z,98032.77
2018-06-22T07:30:37.314Z,98054.36
2018-06-22T07:32:15.314Z,98063.98
2018-06-22T07:33:52.993Z,98090.70
2018-06-22T07:35:35.318Z,98059.96
2018-06-22T07:37:14.975Z,97985.59
2018-06-22T07:38:58.046Z,97968.98
2018-06-22T07:40:37.663Z,97988.27
2018-06-22T07:42:14.279Z,97990.95
2018-06-22T07:43:51.774Z,97992.15
2018-06-22T07:45:28.793Z,98035.58
2018-06-22T07:47:13.431Z,98087.27
2018-06-22T07:48:51.669Z,98085.45
2018-06-22T07:50:27.922Z,98094.34
2018-06-22T07:52:06.802Z,98133.27
2018-06-22T07:53:44.060Z,98193.94
2018-06-22T07:55:20.664Z,98229.83
2018-06-22T07:56:58.667Z,98311.05
2018-06-22T07:58:36.739Z,98322.78
2018-06-22T08:00:17.873Z,98324.98
2018-06-22T08:01:55.378Z,98329.00
2018-06-22T08:03:32.666Z,98267.20
2018-06-22T08:05:09.413Z,98192.70
2018-06-22T08:06:46.900Z,98072.02
2018-06-22T08:08:30.149Z,98048.97
2018-06-22T08:10:07.309Z,98049.21
2018-06-22T08:11:47.746Z,98106.67
2018-06-22T08:13:24.479Z,98156.80
2018-06-22T08:15:05.058Z,98176.48
2018-06-22T08:16:44.696Z,98131.58
2018-06-22T08:18:33.757Z,98112.41
2018-06-22T08:20:11.500Z,98149.72
2018-06-22T08:21:49.536Z,98186.97
2018-06-22T08:23:28.671Z,98157.17
2018-06-22T08:25:06.347Z,98124.33
2018-06-22T08:26:47.084Z,98123.84
2018-06-22T08:28:32.765Z,98092.75
2018-06-22T08:30:18.811Z,98087.87
2018-06-22T08:31:59.685Z,98024.31
2018-06-22T08:33:49.465Z,98031.77
2018-06-22T08:35:36.370Z,97980.20
2018-06-22T08:37:14.816Z,97967.50
2018-06-22T08:38:52.124Z,97938.50
2018-06-22T08:40:29.024Z,97913.14
2018-06-22T08:42:11.883Z,97938.13
2018-06-22T08:43:50.611Z,97964.10
2018-06-22T08:45:28.160Z,97933.52
2018-06-22T08:47:08.782Z,97830.06
2018-06-22T08:48:51.354Z,97788.05
2018-06-22T08:50:35.019Z,97753.09
2018-06-22T08:52:13.383Z,97737.73
2018-06-22T08:53:50.715Z,97749.08
2018-06-22T08:55:27.915Z,97730.19
2018-06-22T08:57:05.739Z,97734.68
2018-06-22T08:58:46.517Z,97745.06
2018-06-22T09:00:23.555Z,97753.91
2018-06-22T09:01:59.881Z,97750.41
2018-06-22T09:03:38.941Z,97790.14
2018-06-22T09:05:16.647Z,97823.95
2018-06-22T09:06:54.794Z,97868.55
2018-06-22T09:08:40.414Z,97945.67
2018-06-22T09:10:17.398Z,97961.05
2018-06-22T09:11:53.867Z,97929.85
2018-06-22T09:13:35.771Z,97937.78
2018-06-22T09:15:13.379Z,98032.00
2018-06-22T09:16:52.534Z,98095.91
2018-06-22T09:18:30.240Z,98050.30
2018-06-22T09:20:16.224Z,98083.20
2018-06-22T09:21:55.057Z,98185.38
2018-06-22T09:23:33.387Z,98196.86
2018-06-22T09:25:10.565Z,98221.75
2018-06-22T09:27:03.224Z,98190.64
2018-06-22T09:28:40.528Z,98140.30
2018-06-22T09:30:17.883Z,98079.32
2018-06-22T09:31:55.848Z,98008.34
2018-06-22T09:33:35.720Z,97927.28
2018-06-22T09:35:13.570Z,97870.50
2018-06-22T09:36:53.708Z,97837.98
2018-06-22T09:38:36.796Z,97834.45
2018-06-22T09:40:18.954Z,97880.48
2018-06-22T09:41:55.745Z,97888.30
2018-06-22T09:43:34.604Z,97928.23
2018-06-22T09:45:16.105Z,97939.12
2018-06-22T09:47:00.684Z,97927.28
2018-06-22T09:48:39.689Z,97865.05
2018-06-22T09:50:16.677Z,97844.67
2018-06-22T09:51:58.587Z,97897.91
2018-06-22T09:53:47.445Z,97931.67
2018-06-22T09:55:38.574Z,97986.89
2018-06-22T09:57:15.795Z,98048.20
2018-06-22T09:58:52.715Z,98093.34
2018-06-22T10:00:33.441Z,98181.53
2018-06-22T10:02:12.607Z,98201.70
2018-06-22T10:04:15.446Z,98217.09
2018-06-22T10:05:55.378Z,98178.02
2018-06-22T10:07:34.404Z,98166.17
2018-06-22T10:09:15.563Z,98164.92
2018-06-22T10:10:55.350Z,98174.11
2018-06-22T10:12:37.267Z,98229.92
2018-06-22T10:14:23.630Z,98270.69
2018-06-22T10:16:40.063Z,98295.59
2018-06-22T10:19:20.463Z,98309.66
2018-06-22T10:21:14.077Z,98440.50
2018-06-22T10:23:03.872Z,98489.27
2018-06-22T10:24:47.955Z,98593.52
2018-06-22T10:26:29.523Z,98602.33
2018-06-22T10:28:07.446Z,98504.70
2018-06-22T10:29:45.676Z,98440.88
2018-06-22T10:31:33.702Z,98456.39
2018-06-22T10:33:14.483Z,98487.20
2018-06-22T10:34:51.875Z,98562.27
2018-06-22T10:38:38.617Z,98633.64
2018-06-22T10:40:16.476Z,98647.22
2018-06-22T10:41:52.909Z,98656.88
2018-06-22T10:43:30.381Z,98567.64
2018-06-22T10:45:08.354Z,98572.91
2018-06-22T10:46:52.908Z,98485.00
2018-06-22T10:48:31.011Z,98408.11
2018-06-22T10:50:16.935Z,98241.46
2018-06-22T10:51:57.175Z,98046.34
2018-06-22T10:53:35.030Z,97999.04
2018-06-22T10:55:13.177Z,98020.88
2018-06-22T10:56:50.401Z,98037.18
2018-06-22T10:58:28.021Z,98115.24
2018-06-22T11:00:09.618Z,98210.83
2018-06-22T11:01:47.439Z,98317.80
2018-06-22T11:03:28.769Z,98425.82
2018-06-22T11:05:09.677Z,98490.75
2018-06-22T11:06:46.663Z,98548.41
2018-06-22T11:08:24.447Z,98607.80
2018-06-22T11:10:11.589Z,98668.86
2018-06-22T11:12:09.108Z,98716.83
2018-06-22T11:14:01.882Z,98745.48
2018-06-22T11:15:48.196Z,98720.38
2018-06-22T11:17:38.738Z,98791.17
2018-06-22T11:19:24.870Z,98768.38
2018-06-22T11:21:22.267Z,98698.84
2018-06-22T11:23:35.573Z,98624.53
2018-06-22T11:25:19.751Z,98562.98
2018-06-22T11:28:57.712Z,98508.91
2018-06-22T11:31:01.946Z,98532.25
2018-06-22T11:34:55.506Z,98682.66
2018-06-22T11:36:35.495Z,98702.86
2018-06-22T11:38:21.557Z,98694.05
2018-06-22T11:40:02.285Z,98606.99
2018-06-22T11:41:45.132Z,98580.58
2018-06-22T11:43:34.779Z,98551.61
2018-06-22T11:45:26.702Z,98561.73
2018-06-22T11:49:03.166Z,98407.09
2018-06-22T11:50:43.715Z,98389.00
2018-06-22T11:52:25.307Z,98345.13
2018-06-22T11:54:10.327Z,98406.23
2018-06-22T11:55:52.023Z,98512.55
2018-06-22T11:57:32.590Z,98575.44
2018-06-22T11:59:13.335Z,98649.23
2018-06-22T12:00:57.072Z,98778.16
2018-06-22T12:02:44.139Z,98866.45
2018-06-22T12:04:26.631Z,98923.85
2018-06-22T12:06:05.222Z,99024.03
2018-06-22T12:07:51.573Z,99128.91
2018-06-22T12:09:37.472Z,99205.86
2018-06-22T12:11:18.121Z,99265.78
2018-06-22T12:12:55.666Z,99088.41
2018-06-22T12:14:37.227Z,98971.22
2018-06-22T12:16:25.480Z,98946.48
2018-06-22T12:18:06.512Z,98866.83
2018-06-22T12:19:45.924Z,98716.77
2018-06-22T12:21:26.026Z,98593.03
2018-06-22T12:23:05.860Z,98527.21
2018-06-22T12:24:44.682Z,98455.09
2018-06-22T12:26:25.365Z,98431.48
2018-06-22T12:28:09.380Z,98380.42
2018-06-22T12:29:50.441Z,98403.27
2018-06-22T12:31:34.044Z,98428.80
2018-06-22T12:33:21.301Z,98455.58
2018-06-22T12:35:06.541Z,98483.22
2018-06-22T12:37:04.497Z,98543.47
2018-06-22T12:39:05.387Z,98484.08
2018-06-22T12:40:46.731Z,98445.94
2018-06-22T12:42:29.595Z,98488.48
2018-06-22T12:44:09.088Z,98540.91
2018-06-22T12:45:55.497Z,98622.62
2018-06-22T12:47:33.702Z,98665.25
2018-06-22T12:49:10.628Z,98607.22
2018-06-22T12:50:48.963Z,98637.95
2018-06-22T12:52:26.506Z,98634.89
2018-06-22T12:54:03.302Z,98652.63
2018-06-22T12:55:45.805Z,98725.97
2018-06-22T12:57:27.582Z,98799.55
2018-06-22T12:59:09.978Z,98825.52
2018-06-22T13:00:51.951Z,98915.42
2018-06-22T13:02:32.838Z,98965.59
2018-06-22T13:04:18.349Z,99052.91
2018-06-22T13:05:57.439Z,99050.70
2018-06-22T13:07:45.330Z,99184.34
2018-06-22T13:09:22.468Z,99269.14
2018-06-22T13:11:05.588Z,99359.21
2018-06-22T13:12:46.959Z,99414.89
2018-06-22T13:14:55.083Z,99452.03
2018-06-22T13:16:35.459Z,99328.82
2018-06-22T13:18:12.568Z,99293.56
2018-06-22T13:19:49.658Z,99236.49
2018-06-22T13:21:26.486Z,99229.08
2018-06-22T13:23:03.146Z,99199.52
2018-06-22T13:24:42.381Z,99274.52
2018-06-22T13:26:18.983Z,99341.23
2018-06-22T13:27:56.130Z,99218.05
2018-06-22T13:29:34.401Z,99198.66
2018-06-22T13:32:58.044Z,99245.83
2018-06-22T13:34:37.281Z,99237.45
2018-06-22T13:36:15.440Z,99199.14
2018-06-22T13:37:53.624Z,99235.33
2018-06-22T13:39:32.440Z,99288.75
2018-06-22T13:41:12.134Z,99292.70
2018-06-22T13:42:51.514Z,99291.36
2018-06-22T13:44:31.553Z,99298.08
2018-06-22T13:47:43.003Z,99253.03
2018-06-22T13:49:22.518Z,99181.83
2018-06-22T13:51:01.204Z,99134.81
2018-06-22T13:52:43.032Z,99184.61
2018-06-22T13:54:19.558Z,99216.32
2018-06-22T13:55:56.537Z,99250.42
2018-06-22T13:57:36.921Z,99319.70
2018-06-22T13:59:15.462Z,99380.75
2018-06-22T14:00:54.070Z,99397.51
2018-06-22T14:02:31.706Z,99435.95
2018-06-22T14:04:15.202Z,99477.02
2018-06-22T14:05:59.204Z,99487.61
2018-06-22T14:07:43.251Z,99530.42
2018-06-22T14:09:30.583Z,99574.69
2018-06-22T14:11:08.705Z,99576.03
2018-06-22T14:12:46.227Z,99550.06
2018-06-22T14:14:24.592Z,99557.94
2018-06-22T14:16:09.583Z,99607.98
2018-06-22T14:17:48.524Z,99630.91
2018-06-22T14:19:29.591Z,99613.68
2018-06-22T14:21:08.500Z,99638.91
2018-06-22T14:22:45.407Z,99653.52
2018-06-22T14:24:22.415Z,99611.07
2018-06-22T14:26:01.615Z,99715.95
2018-06-22T14:27:39.905Z,99695.14
2018-06-22T14:29:19.388Z,99686.27
2018-06-22T14:30:57.796Z,99699.07
2018-06-22T14:32:33.941Z,99743.41
2018-06-22T14:34:10.698Z,99630.52
2018-06-22T14:35:47.275Z,99606.64
2018-06-22T14:37:23.624Z,99657.56
2018-06-22T14:39:01.399Z,99706.59
2018-06-22T14:40:40.504Z,99636.30
2018-06-22T14:42:19.597Z,99528.69
2018-06-22T14:43:57.512Z,99434.61
2018-06-22T14:45:42.577Z,99358.73
2018-06-22T14:47:20.699Z,99325.17
2018-06-22T14:49:02.484Z,99311.93
2018-06-22T14:50:40.511Z,99347.28
2018-06-22T14:52:18.490Z,99333.07
2018-06-22T14:54:00.619Z,99299.52
2018-06-22T14:55:43.588Z,99329.13
2018-06-22T14:57:27.573Z,99334.03
2018-06-22T14:59:09.631Z,99311.45
2018-06-22T15:00:51.038Z,99293.36
2018-06-22T15:02:33.160Z,99364.86
2018-06-22T15:04:14.441Z,99484.62
2018-06-22T15:05:57.192Z,99590.20
2018-06-22T15:07:41.893Z,99629.16
2018-06-22T15:09:22.381Z,99670.27
2018-06-22T15:11:01.234Z,99679.23
2018-06-22T15:12:39.256Z,99631.86
2018-06-22T15:14:16.248Z,99653.05
2018-06-22T15:16:01.794Z,99654.00
2018-06-22T15:17:45.346Z,99624.25
2018-06-22T15:19:24.500Z,99638.91
2018-06-22T15:21:01.485Z,99615.89
2018-06-22T15:22:40.941Z,99630.03
2018-06-22T15:24:21.398Z,99611.46
2018-06-22T15:26:01.896Z,99666.34
2018-06-22T15:27:39.993Z,99711.90
2018-06-22T15:29:31.719Z,99666.34
2018-06-22T15:31:10.557Z,99624.73
2018-06-22T15:32:48.790Z,99671.63
2018-06-22T15:34:30.108Z,99682.23
2018-06-22T15:36:12.316Z,99730.48
2018-06-22T15:37:54.671Z,99776.95
2018-06-22T15:39:36.841Z,99705.25
2018-06-22T15:41:20.736Z,99676.84
2018-06-22T15:43:05.632Z,99717.69
2018-06-22T15:44:52.486Z,99773.47
2018-06-22T15:46:35.304Z,99812.43
2018-06-22T15:48:17.499Z,99791.59
2018-06-22T15:49:59.689Z,99759.33
2018-06-22T15:51:43.239Z,99723.35
2018-06-22T15:53:25.389Z,99674.70
2018-06-22T15:55:10.009Z,99636.30
2018-06-22T15:57:05.334Z,99576.03
2018-06-22T15:58:41.993Z,99447.90
2018-06-22T16:00:22.387Z,99356.91
2018-06-22T16:02:04.833Z,99245.52
2018-06-22T16:03:46.195Z,99209.42
2018-06-22T16:05:25.264Z,99259.63
2018-06-22T16:07:01.671Z,99294.61
2018-06-22T16:08:39.489Z,99321.91
2018-06-22T16:10:18.974Z,99381.11
2018-06-22T16:12:00.281Z,99419.53
2018-06-22T16:13:36.649Z,99495.97
2018-06-22T16:15:20.334Z,99503.09
2018-06-22T16:17:07.420Z,99559.68
2018-06-22T16:18:48.575Z,99588.45
2018-06-22T16:20:31.537Z,99616.17
2018-06-22T16:22:14.292Z,99621.56
2018-06-22T16:23:56.528Z,99547.64
2018-06-22T16:25:39.430Z,99551.20
2018-06-22T16:27:21.513Z,99574.20
2018-06-22T16:28:58.017Z,99596.73
2018-06-22T16:30:35.893Z,99621.08
2018-06-22T16:32:13.511Z,99631.69
2018-06-22T16:33:56.119Z,99612.25
2018-06-22T16:35:32.436Z,99559.98
2018-06-22T16:37:11.188Z,99462.41
2018-06-22T16:38:51.635Z,99415.97
2018-06-22T16:40:34.155Z,99382.84
2018-06-22T16:42:17.497Z,99395.68
2018-06-22T16:44:19.732Z,99421.23
2018-06-22T16:46:03.888Z,99452.12
2018-06-22T16:47:46.601Z,99383.66
2018-06-22T16:49:29.470Z,99215.36
2018-06-22T16:51:14.289Z,99145.65
2018-06-22T16:52:54.094Z,99182.79
2018-06-22T16:54:32.825Z,99232.16
2018-06-22T16:56:21.714Z,99279.42
2018-06-22T16:58:07.483Z,99303.25
2018-06-22T17:00:04.315Z,99326.70
2018-06-22T17:01:59.228Z,99339.02
2018-06-22T17:03:38.834Z,99390.66
2018-06-22T17:05:21.503Z,99426.05
2018-06-22T17:07:10.637Z,99444.13
2018-06-22T17:09:24.413Z,99452.03
2018-06-22T17:11:06.800Z,99336.33
2018-06-22T17:12:50.866Z,99338.63
2018-06-22T17:14:38.495Z,99299.13
2018-06-22T17:16:23.770Z,99342.97
2018-06-22T17:18:05.820Z,99413.16
2018-06-22T17:19:44.000Z,99455.59
2018-06-22T17:21:21.479Z,99441.55
2018-06-22T17:22:58.974Z,99427.88
2018-06-22T17:24:40.616Z,99373.42
2018-06-22T17:26:19.193Z,99342.46
2018-06-22T17:28:02.664Z,99364.59
2018-06-22T17:29:40.490Z,99303.64
2018-06-22T17:31:18.885Z,99204.69
2018-06-22T17:32:57.473Z,99100.60
2018-06-22T17:34:50.587Z,99079.39
2018-06-22T17:36:29.378Z,99006.62
2018-06-22T17:38:12.562Z,99027.89
2018-06-22T17:39:53.281Z,99108.58
2018-06-22T17:41:36.633Z,99157.06
2018-06-22T17:43:14.760Z,99084.20
2018-06-22T17:44:56.442Z,99065.69
2018-06-22T17:46:37.222Z,99103.67
2018-06-22T17:48:18.487Z,99128.83
2018-06-22T17:50:07.105Z,99129.69
2018-06-22T17:51:49.344Z,99128.35
2018-06-22T17:53:29.470Z,99094.87
2018-06-22T17:55:08.580Z,99063.86
2018-06-22T17:56:52.229Z,99013.20
2018-06-22T17:58:28.470Z,99006.18
2018-06-22T18:00:15.710Z,98977.46
2018-06-22T18:01:59.932Z,99006.95
2018-06-22T18:03:47.106Z,99045.32
2018-06-22T18:05:35.829Z,99037.86
2018-06-22T18:07:28.356Z,99060.31
2018-06-22T18:09:15.482Z,99079.30
2018-06-22T18:10:59.447Z,99013.20
2018-06-22T18:12:43.078Z,98979.58
2018-06-22T18:14:21.645Z,98964.24
2018-06-22T18:15:59.761Z,98885.80
2018-06-22T18:17:36.701Z,98798.30
2018-06-22T18:19:14.561Z,98802.23
2018-06-22T18:20:51.605Z,98830.89
2018-06-22T18:22:30.590Z,98810.94
2018-06-22T18:24:08.551Z,98803.09
2018-06-22T18:25:44.899Z,98796.86
2018-06-22T18:27:21.659Z,98773.97
2018-06-22T18:28:58.532Z,98780.20
2018-06-22T18:30:35.378Z,98817.55
2018-06-22T18:32:15.660Z,98844.02
2018-06-22T18:33:53.413Z,98854.53
2018-06-22T18:35:32.536Z,98843.53
2018-06-22T18:37:11.687Z,98818.03
2018-06-22T18:38:49.928Z,98804.70
2018-06-22T18:40:26.969Z,98842.67
2018-06-22T18:42:04.726Z,98867.30
2018-06-22T18:43:47.870Z,98902.08
2018-06-22T18:45:31.761Z,98891.08
2018-06-22T18:47:10.207Z,98905.54
2018-06-22T18:48:49.645Z,98856.27
2018-06-22T18:54:17.458Z,98756.45
2018-06-22T18:58:46.679Z,98730.87
2018-06-22T19:00:29.619Z,98768.69
2018-06-22T19:02:12.633Z,98823.22
2018-06-22T19:03:51.614Z,98836.91
2018-06-22T19:05:28.574Z,98812.28
2018-06-22T19:07:05.599Z,98800.80
2018-06-22T19:10:18.363Z,98773.97
2018-06-22T19:11:58.295Z,98676.75
2018-06-22T19:13:36.811Z,98697.91
2018-06-22T19:15:16.622Z,98671.86
2018-06-22T19:17:08.289Z,98685.06
2018-06-22T19:18:46.602Z,98696.95
2018-06-22T19:20:23.258Z,98726.45
2018-06-22T19:21:59.704Z,98735.25
2018-06-22T19:23:37.547Z,98733.91
2018-06-22T19:25:14.405Z,98750.59
2018-06-22T19:26:53.486Z,98722.42
2018-06-22T19:28:37.538Z,98722.05
2018-06-22T19:30:22.392Z,98718.11
2018-06-22T19:32:08.503Z,98620.35
2018-06-22T19:33:47.358Z,98583.87
2018-06-22T19:35:24.360Z,98553.53
2018-06-22T19:37:04.586Z,98560.62
2018-06-22T19:38:50.463Z,98588.24
2018-06-22T19:40:29.725Z,98589.11
2018-06-22T19:42:09.591Z,98608.81
2018-06-22T19:43:55.117Z,98630.86
2018-06-22T19:45:37.189Z,98601.47
2018-06-22T19:47:20.419Z,98558.41
2018-06-22T19:49:03.228Z,98515.23
2018-06-22T19:50:46.063Z,98543.98
2018-06-22T19:52:30.766Z,98570.74
2018-06-22T19:54:08.788Z,98553.14
2018-06-22T19:55:49.409Z,98527.21